KMWO

Middletown Regional / Hook Field Airport

Middletown, Ohio, USA
METAR KMWO 181315Z AUTO 00000KT 2 1/2SM -DZ BR BKN008 OVC016 01/00 A3016 RMK AO2 VIS 2V4 T00071001
Observed Flight Rules
Jan-18 @ 13:15 UTC (34 minutes ago) Instrument Flight Rules
Visibility Clouds Conditions
2 1/2 miles
  • Broken at 800' AGL
  • Overcast at 1,600' AGL
  • Light Drizzle
  • Mist
Temperatures Readings
Current 1°C / 34°F
Dewpoint -0°C / 32°F
Humidity 93%
Altimeter 30.16" Hg
Pressure 1021.32 hPa
Elevation 198
METAR KMWO 181315Z AUTO 00000KT 2 1/2SM -DZ BR BKN008 OVC016 01/00 A3016 RMK AO2 VIS 2V4 T00071001
Observed Flight Rules
Jan-18 @ 13:15 UTC
(34 minutes ago)
IFR
Clouds
  • Broken at 800' AGL
  • Overcast at 1,600' AGL
Conditions
  • Light Drizzle
  • Mist
Temperature Dewpoint
1°C / 34°F -0°C / 32°F
Humidity Altimeter Pressure
93% 30.16" Hg 1021.32 hPa